Time;durP1;ratioP1;P1;durP2;ratioP2;P2;SDS_P1;SDS_P2;PMS_P1;PMS_P2;Temp;Humidity;BMP_temperature;BMP_pressure;BME280_temperature;BME280_humidity;BME280_pressure;Samples;Min_cycle;Max_cycle;Signal;HPM_P1;HPM_P2
2023/12/09 00:00:49;;;;;;;20.50;13.90;;;;;;;-2.01;100.00;101016.05;104767;1259;66797;-52
2023/12/09 00:03:16;;;;;;;27.00;16.30;;;;;;;-2.03;100.00;101014.41;104635;1258;72377;-52
2023/12/09 00:05:44;;;;;;;26.30;16.30;;;;;;;-2.03;100.00;101017.06;104891;1256;61447;-51
2023/12/09 00:08:11;;;;;;;27.20;14.70;;;;;;;-2.00;100.00;101010.98;102043;1259;3463862;-52
2023/12/09 00:11:26;;;;;;;28.80;16.30;;;;;;;-1.97;100.00;101088.27;101663;1291;600788;-51
2023/12/09 00:13:54;;;;;;;30.30;15.70;;;;;;;-1.95;100.00;101091.99;104047;1267;59424;-51
2023/12/09 00:16:22;;;;;;;37.40;20.00;;;;;;;-1.91;100.00;101084.17;103955;1267;60163;-51
2023/12/09 00:18:49;;;;;;;35.60;19.20;;;;;;;-1.89;100.00;101077.19;104303;1267;71119;-50
2023/12/09 00:21:17;;;;;;;33.60;17.50;;;;;;;-1.91;100.00;101064.66;104192;1267;66512;-52
2023/12/09 00:23:44;;;;;;;30.70;17.00;;;;;;;-1.95;100.00;101061.05;104161;1271;71497;-51
2023/12/09 00:26:14;;;;;;;32.30;19.00;;;;;;;-1.99;100.00;101063.59;101688;1268;3467538;-51
2023/12/09 00:28:42;;;;;;;31.60;16.80;;;;;;;-2.00;100.00;101058.98;104023;1263;59491;-51
2023/12/09 00:31:09;;;;;;;32.00;17.30;;;;;;;-2.02;100.00;101057.00;104024;1269;71062;-51
2023/12/09 00:33:37;;;;;;;28.20;16.80;;;;;;;-2.03;100.00;101060.67;104148;1269;65951;-52
2023/12/09 00:36:04;;;;;;;23.60;14.60;;;;;;;-2.04;100.00;101061.71;104183;1266;72902;-51
2023/12/09 00:38:32;;;;;;;28.60;17.40;;;;;;;-2.04;100.00;101064.88;104858;1266;61502;-51
2023/12/09 00:40:59;;;;;;;24.10;14.00;;;;;;;-2.02;100.00;101061.58;104341;1265;63778;-52
2023/12/09 00:43:27;;;;;;;21.80;14.10;;;;;;;-2.00;100.00;101064.09;104021;1263;74019;-52
2023/12/09 00:45:54;;;;;;;20.10;12.40;;;;;;;-1.97;100.00;101066.29;104292;1264;64524;-51
2023/12/09 00:48:22;;;;;;;25.10;14.30;;;;;;;-1.94;100.00;101069.51;104066;1263;73297;-51
2023/12/09 00:50:49;;;;;;;21.50;13.60;;;;;;;-1.89;100.00;101069.09;104851;1260;59664;-51
2023/12/09 00:53:17;;;;;;;21.50;13.20;;;;;;;-1.85;100.00;101067.23;108549;1259;58806;-52
2023/12/09 00:55:45;;;;;;;18.70;12.10;;;;;;;-1.80;100.00;101059.98;108563;1259;73242;-52
2023/12/09 00:58:12;;;;;;;21.20;13.30;;;;;;;-1.80;100.00;101058.06;108580;1259;67085;-52
2023/12/09 01:00:39;;;;;;;26.40;14.80;;;;;;;-1.79;100.00;101057.02;108557;1260;71792;-52
2023/12/09 01:03:07;;;;;;;30.20;17.30;;;;;;;-1.80;100.00;101053.29;108468;1261;59287;-52
2023/12/09 01:05:34;;;;;;;26.80;17.00;;;;;;;-1.82;100.00;101043.21;104420;1260;60532;-51
2023/12/09 01:08:02;;;;;;;30.80;15.70;;;;;;;-1.87;100.00;101041.33;104332;1262;73910;-51
2023/12/09 01:10:29;;;;;;;24.00;14.70;;;;;;;-1.92;100.00;101040.70;104411;1260;67290;-51
2023/12/09 01:12:57;;;;;;;26.50;16.00;;;;;;;-1.97;100.00;101036.02;104424;1265;72202;-51
2023/12/09 01:15:24;;;;;;;38.80;20.20;;;;;;;-2.01;100.00;101038.91;104641;1262;59752;-52
2023/12/09 01:17:51;;;;;;;34.70;19.90;;;;;;;-2.04;100.00;101045.36;104689;1256;59949;-51
2023/12/09 01:20:19;;;;;;;27.50;15.80;;;;;;;-2.02;100.00;101044.86;104446;1259;73202;-52
2023/12/09 01:22:47;;;;;;;36.80;19.40;;;;;;;-2.00;100.00;101044.05;104538;1257;66897;-51
2023/12/09 01:25:14;;;;;;;33.00;16.80;;;;;;;-1.97;100.00;101046.77;104627;1261;72722;-51
2023/12/09 01:27:41;;;;;;;30.20;16.00;;;;;;;-1.93;100.00;101046.48;104420;1260;59835;-52
2023/12/09 01:30:09;;;;;;;26.40;14.10;;;;;;;-1.88;100.00;101051.17;104410;1256;61392;-51
2023/12/09 01:32:37;;;;;;;24.70;13.40;;;;;;;-1.85;100.00;101051.05;105546;1262;75275;-51
2023/12/09 01:35:05;;;;;;;34.80;19.40;;;;;;;-1.82;100.00;101048.50;104951;1256;67928;-51
2023/12/09 01:37:32;;;;;;;25.50;14.70;;;;;;;-1.79;100.00;101045.05;105074;1253;72815;-51
2023/12/09 01:40:00;;;;;;;24.60;14.80;;;;;;;-1.78;100.00;101044.36;105302;1253;59663;-51
2023/12/09 01:42:27;;;;;;;17.30;11.60;;;;;;;-1.78;100.00;101043.82;105128;1253;61117;-53
2023/12/09 01:44:55;;;;;;;23.00;10.90;;;;;;;-1.80;100.00;101047.49;105034;1257;71834;-51
2023/12/09 01:47:23;;;;;;;21.70;12.60;;;;;;;-1.85;100.00;101049.13;104942;1257;67452;-51
2023/12/09 01:49:50;;;;;;;17.30;11.20;;;;;;;-1.88;100.00;101052.94;105160;1254;71097;-51
2023/12/09 01:52:18;;;;;;;16.30;8.90;;;;;;;-1.91;100.00;101051.13;104573;1257;61054;-51
2023/12/09 01:54:45;;;;;;;20.70;10.90;;;;;;;-1.91;100.00;101048.99;104847;1255;59795;-51
2023/12/09 01:57:13;;;;;;;17.80;10.50;;;;;;;-1.92;100.00;101044.23;105156;1253;75009;-51
2023/12/09 01:59:40;;;;;;;17.50;10.00;;;;;;;-1.94;100.00;101042.41;104945;1256;64837;-51
2023/12/09 02:02:08;;;;;;;18.60;9.10;;;;;;;-1.95;100.00;101043.08;105022;1256;74504;-51
2023/12/09 02:04:35;;;;;;;16.20;9.60;;;;;;;-1.93;100.00;101041.02;104909;1253;61594;-52
2023/12/09 02:07:03;;;;;;;15.00;8.80;;;;;;;-1.91;100.00;101041.26;104955;1253;60413;-49
2023/12/09 02:09:31;;;;;;;16.10;9.20;;;;;;;-1.88;100.00;101037.63;105079;1252;73015;-52
2023/12/09 02:12:10;;;;;;;14.70;8.80;;;;;;;-1.85;100.00;101039.08;104859;1257;67743;-52
2023/12/09 02:14:41;;;;;;;17.90;9.80;;;;;;;-1.83;100.00;101041.24;106674;1258;72784;-51
2023/12/09 02:17:21;;;;;;;22.90;12.80;;;;;;;-1.83;100.00;101039.84;104938;1258;60228;-51
2023/12/09 02:19:48;;;;;;;23.60;14.10;;;;;;;-1.86;100.00;101042.23;105222;1259;60575;-51
2023/12/09 02:22:16;;;;;;;26.00;16.60;;;;;;;-1.88;100.00;101038.15;105232;1253;71850;-51
2023/12/09 02:24:43;;;;;;;24.70;14.30;;;;;;;-1.90;100.00;101037.05;105062;1253;65929;-51
2023/12/09 02:27:12;;;;;;;24.00;13.70;;;;;;;-1.92;100.00;101032.44;105042;1253;72863;-52
2023/12/09 02:30:02;;;;;;;21.60;13.10;;;;;;;-1.95;100.00;101029.90;105238;1252;59907;-52
2023/12/09 02:32:31;;;;;;;20.30;11.40;;;;;;;-1.98;100.00;101028.96;105896;1253;60270;-52
2023/12/09 02:34:58;;;;;;;21.00;10.70;;;;;;;-1.99;100.00;101027.19;104829;1255;73687;-52
2023/12/09 02:37:26;;;;;;;18.00;10.00;;;;;;;-2.01;100.00;101024.52;105153;1259;64642;-51
2023/12/09 02:39:54;;;;;;;18.60;11.30;;;;;;;-2.00;100.00;101023.80;104747;1256;72728;-50
2023/12/09 02:42:21;;;;;;;19.20;11.50;;;;;;;-1.98;100.00;101024.56;104900;1253;59909;-49
2023/12/09 02:44:49;;;;;;;17.40;10.90;;;;;;;-1.96;100.00;101023.73;104784;1254;60087;-52
2023/12/09 02:47:16;;;;;;;20.40;11.20;;;;;;;-1.94;100.00;101023.24;106267;1253;73065;-52
2023/12/09 02:49:44;;;;;;;24.80;11.60;;;;;;;-1.90;100.00;101023.17;104867;1257;65664;-51
2023/12/09 02:52:12;;;;;;;18.30;11.50;;;;;;;-1.85;100.00;101022.20;105377;1261;71557;-51
2023/12/09 02:54:39;;;;;;;26.00;13.60;;;;;;;-1.81;100.00;101020.55;104946;1254;59709;-51
2023/12/09 02:57:07;;;;;;;27.60;14.20;;;;;;;-1.76;100.00;101027.85;104907;1258;60917;-51
2023/12/09 02:59:35;;;;;;;24.60;14.40;;;;;;;-1.75;100.00;101035.27;104800;1260;73130;-52
2023/12/09 03:02:02;;;;;;;27.20;14.80;;;;;;;-1.76;100.00;101038.94;105024;1259;68019;-51
2023/12/09 03:04:31;;;;;;;23.90;15.30;;;;;;;-1.78;100.00;101035.72;105061;1253;71601;-51
2023/12/09 03:06:58;;;;;;;25.20;14.00;;;;;;;-1.81;100.00;101037.25;104824;1257;59704;-51
2023/12/09 03:09:25;;;;;;;26.50;15.20;;;;;;;-1.87;100.00;101035.01;105031;1252;62593;-52
2023/12/09 03:11:53;;;;;;;25.50;13.60;;;;;;;-1.90;100.00;101041.81;104900;1254;76946;-52
2023/12/09 03:14:22;;;;;;;23.50;13.60;;;;;;;-1.93;100.00;101038.56;105114;1257;65975;-51
2023/12/09 03:16:50;;;;;;;23.40;12.80;;;;;;;-1.98;100.00;101043.23;104853;1263;72463;-51
2023/12/09 03:19:17;;;;;;;25.40;13.40;;;;;;;-2.00;100.00;101041.41;104953;1253;61465;-50
2023/12/09 03:21:44;;;;;;;27.50;14.70;;;;;;;-2.01;100.00;101042.95;105602;1254;60976;-52
2023/12/09 03:24:12;;;;;;;25.60;13.60;;;;;;;-2.03;100.00;101037.45;104860;1259;70845;-52
2023/12/09 03:26:39;;;;;;;22.70;14.10;;;;;;;-2.02;100.00;101040.46;105110;1259;67836;-52
2023/12/09 03:29:07;;;;;;;23.70;14.50;;;;;;;-2.02;100.00;101038.00;104948;1254;71445;-51
2023/12/09 03:31:34;;;;;;;25.80;14.20;;;;;;;-2.00;100.00;101042.27;104869;1257;59960;-51
2023/12/09 03:34:01;;;;;;;19.40;12.00;;;;;;;-1.97;100.00;101044.81;104791;1258;60538;-52
2023/12/09 03:36:29;;;;;;;24.00;13.40;;;;;;;-1.93;100.00;101046.48;104927;1254;71819;-50
2023/12/09 03:38:56;;;;;;;26.20;14.30;;;;;;;-1.94;100.00;101049.44;104832;1257;69016;-51
2023/12/09 03:41:24;;;;;;;27.70;12.80;;;;;;;-1.96;100.00;101047.30;105082;1257;71506;-51
2023/12/09 03:43:52;;;;;;;26.50;14.60;;;;;;;-1.99;100.00;101044.41;104900;1258;59667;-51
2023/12/09 03:46:20;;;;;;;30.30;17.20;;;;;;;-2.01;100.00;101043.66;104999;1256;59772;-51
2023/12/09 03:48:47;;;;;;;29.30;15.00;;;;;;;-2.04;100.00;101051.52;104913;1253;71642;-52
2023/12/09 03:51:15;;;;;;;31.40;15.20;;;;;;;-2.08;100.00;101051.05;104812;1252;65551;-52
2023/12/09 03:53:43;;;;;;;26.00;13.80;;;;;;;-2.11;100.00;101049.92;104860;1259;72760;-51
2023/12/09 03:56:13;;;;;;;30.00;15.40;;;;;;;-2.12;100.00;101047.80;104908;1255;62914;-52
2023/12/09 03:58:40;;;;;;;27.90;14.90;;;;;;;-2.11;100.00;101047.64;105016;1258;59622;-51
2023/12/09 04:01:08;;;;;;;27.90;14.50;;;;;;;-2.11;100.00;101047.46;104744;1257;73107;-52
2023/12/09 04:03:35;;;;;;;33.10;15.80;;;;;;;-2.11;100.00;101046.23;104802;1257;65508;-52
2023/12/09 04:06:05;;;;;;;28.30;15.00;;;;;;;-2.09;100.00;101039.79;104926;1255;71443;-52
2023/12/09 04:08:32;;;;;;;24.00;13.30;;;;;;;-2.07;100.00;101040.36;109062;1253;59689;-52
2023/12/09 04:11:00;;;;;;;29.20;15.00;;;;;;;-2.04;100.00;101038.31;109072;1257;58195;-52
2023/12/09 04:13:27;;;;;;;25.40;15.40;;;;;;;-2.03;100.00;101035.33;109189;1253;71801;-52
2023/12/09 04:15:54;;;;;;;23.30;14.00;;;;;;;-2.04;100.00;101033.58;109257;1254;66276;-52
2023/12/09 04:18:22;;;;;;;29.00;15.40;;;;;;;-2.05;100.00;101031.64;108960;1257;72644;-52
2023/12/09 04:20:50;;;;;;;30.30;17.30;;;;;;;-2.04;100.00;101031.81;109171;1254;58156;-52
2023/12/09 04:23:18;;;;;;;31.10;16.90;;;;;;;-2.06;100.00;101026.67;109166;1254;60412;-52
2023/12/09 04:25:46;;;;;;;32.80;17.80;;;;;;;-2.07;100.00;101027.35;109073;1253;73841;-52
2023/12/09 04:28:13;;;;;;;29.80;17.10;;;;;;;-2.08;100.00;101031.38;109216;1253;67553;-52
2023/12/09 04:30:41;;;;;;;36.50;17.10;;;;;;;-2.10;100.00;101035.55;106043;1253;71443;-52
2023/12/09 04:33:08;;;;;;;31.70;16.90;;;;;;;-2.12;100.00;101036.89;104920;1254;60558;-50
2023/12/09 04:35:36;;;;;;;30.90;15.80;;;;;;;-2.13;100.00;101036.17;105060;1252;60334;-52
2023/12/09 04:38:03;;;;;;;28.00;15.60;;;;;;;-2.15;100.00;101035.27;104766;1257;74313;-52
2023/12/09 04:40:31;;;;;;;32.00;15.00;;;;;;;-2.15;100.00;101035.23;105310;1254;66889;-52
2023/12/09 04:42:58;;;;;;;28.10;14.70;;;;;;;-2.14;100.00;101037.04;104868;1255;72585;-52
2023/12/09 04:45:26;;;;;;;28.80;15.10;;;;;;;-2.11;100.00;101036.73;104823;1254;60552;-51
2023/12/09 04:47:53;;;;;;;29.70;15.70;;;;;;;-2.09;100.00;101040.67;104986;1256;60579;-51
2023/12/09 04:50:21;;;;;;;28.30;15.20;;;;;;;-2.07;100.00;101038.25;106830;1254;72609;-52
2023/12/09 04:52:48;;;;;;;30.30;14.60;;;;;;;-2.05;100.00;101040.42;104928;1257;65725;-52
2023/12/09 04:55:16;;;;;;;31.60;16.30;;;;;;;-2.03;100.00;101044.49;105020;1257;73232;-50
2023/12/09 04:57:43;;;;;;;33.80;17.30;;;;;;;-2.01;100.00;101041.91;104857;1253;60543;-52
2023/12/09 05:00:11;;;;;;;32.80;16.50;;;;;;;-2.00;100.00;101044.58;104853;1257;60442;-51
2023/12/09 05:02:39;;;;;;;35.10;16.10;;;;;;;-2.01;100.00;101042.26;104910;1256;73924;-51
2023/12/09 05:05:06;;;;;;;36.10;17.50;;;;;;;-2.03;100.00;101051.17;104897;1255;65952;-51
2023/12/09 05:07:34;;;;;;;36.10;17.20;;;;;;;-2.07;100.00;101055.15;105317;1260;72754;-51
2023/12/09 05:10:02;;;;;;;37.40;17.00;;;;;;;-2.10;100.00;101062.09;104929;1260;60463;-52
2023/12/09 05:12:29;;;;;;;41.20;17.90;;;;;;;-2.13;100.00;101069.42;105970;1257;60552;-50
2023/12/09 05:14:59;;;;;;;37.60;16.10;;;;;;;-2.14;100.00;101071.51;105220;1257;73648;-51
2023/12/09 05:17:27;;;;;;;43.10;19.60;;;;;;;-2.15;100.00;101073.42;105043;1254;68845;-51
2023/12/09 05:19:54;;;;;;;45.30;20.60;;;;;;;-2.14;100.00;101070.97;104890;1256;72746;-52
2023/12/09 05:22:21;;;;;;;52.10;24.90;;;;;;;-2.12;100.00;101072.59;104968;1257;60866;-51
2023/12/09 05:24:50;;;;;;;46.40;22.10;;;;;;;-2.11;100.00;101074.73;106035;1256;60433;-52
2023/12/09 05:27:18;;;;;;;49.30;19.70;;;;;;;-2.11;100.00;101072.27;104921;1256;71579;-51
2023/12/09 05:29:45;;;;;;;43.20;19.40;;;;;;;-2.08;100.00;101072.52;104955;1267;65207;-52
2023/12/09 05:32:13;;;;;;;38.70;18.80;;;;;;;-2.05;100.00;101076.48;105081;1254;72728;-52
2023/12/09 05:34:40;;;;;;;47.00;19.10;;;;;;;-2.03;100.00;101074.56;105191;1254;60479;-52
2023/12/09 05:37:08;;;;;;;47.20;19.00;;;;;;;-2.01;100.00;101075.15;105103;1258;60482;-52
2023/12/09 05:39:35;;;;;;;37.20;17.00;;;;;;;-2.00;100.00;101076.58;105001;1257;74346;-52
2023/12/09 05:42:04;;;;;;;61.20;26.10;;;;;;;-2.00;100.00;101072.88;104986;1254;65819;-52
2023/12/09 05:44:32;;;;;;;55.00;27.30;;;;;;;-2.00;100.00;101070.95;104983;1256;70343;-53
2023/12/09 05:46:59;;;;;;;49.30;21.70;;;;;;;-2.00;100.00;101074.46;105000;1259;61225;-53
2023/12/09 05:49:27;;;;;;;39.30;20.70;;;;;;;-2.00;100.00;101072.55;105032;1259;60316;-53
2023/12/09 05:51:54;;;;;;;33.80;16.40;;;;;;;-2.01;100.00;101072.88;104942;1257;73896;-53
2023/12/09 05:54:22;;;;;;;42.00;18.50;;;;;;;-2.02;100.00;101079.69;105031;1257;66720;-53
2023/12/09 05:56:50;;;;;;;29.40;14.50;;;;;;;-2.02;100.00;101084.10;105073;1257;72924;-52
2023/12/09 05:59:17;;;;;;;31.40;14.60;;;;;;;-2.01;100.00;101081.84;105488;1254;60521;-53
2023/12/09 06:01:44;;;;;;;29.60;13.90;;;;;;;-2.00;100.00;101079.40;104832;1255;60385;-53
2023/12/09 06:04:12;;;;;;;31.30;14.70;;;;;;;-1.97;100.00;101081.23;105049;1255;72622;-52
2023/12/09 06:06:40;;;;;;;28.80;13.80;;;;;;;-1.94;100.00;101079.18;104807;1258;67613;-53
2023/12/09 06:09:09;;;;;;;25.20;11.30;;;;;;;-1.92;100.00;101080.27;104897;1254;70834;-51
2023/12/09 06:11:36;;;;;;;31.30;14.10;;;;;;;-1.92;100.00;101079.76;104898;1254;60939;-52
2023/12/09 06:14:04;;;;;;;24.00;13.50;;;;;;;-1.90;100.00;101076.48;105109;1260;60539;-52
2023/12/09 06:16:31;;;;;;;30.10;14.90;;;;;;;-1.87;100.00;101080.39;104977;1254;77734;-53
2023/12/09 06:18:58;;;;;;;29.60;13.50;;;;;;;-1.86;100.00;101077.59;104741;1254;66902;-49
2023/12/09 06:21:26;;;;;;;30.80;14.90;;;;;;;-1.86;100.00;101079.36;104732;1254;72641;-51
2023/12/09 06:23:53;;;;;;;24.70;14.80;;;;;;;-1.85;100.00;101075.50;104654;1256;60649;-51
2023/12/09 06:26:21;;;;;;;32.00;15.60;;;;;;;-1.85;100.00;101074.46;104824;1257;61529;-51
2023/12/09 06:28:48;;;;;;;32.80;15.90;;;;;;;-1.84;100.00;101069.55;104897;1257;72272;-50
2023/12/09 06:31:15;;;;;;;36.10;18.40;;;;;;;-1.85;100.00;101073.56;105071;1256;68986;-50
2023/12/09 06:33:43;;;;;;;32.60;16.00;;;;;;;-1.94;100.00;101070.73;104793;1254;73288;-52
2023/12/09 06:36:11;;;;;;;35.50;15.40;;;;;;;-2.04;100.00;101069.09;108645;1253;61289;-51
2023/12/09 06:38:39;;;;;;;30.30;15.00;;;;;;;-2.07;100.00;101067.61;104676;1259;60435;-51
2023/12/09 06:41:07;;;;;;;27.80;15.20;;;;;;;-2.08;100.00;101067.95;106074;1254;72745;-51
2023/12/09 06:43:35;;;;;;;30.20;14.00;;;;;;;-2.07;100.00;101068.16;108027;1260;66758;-51
2023/12/09 06:46:02;;;;;;;27.90;14.70;;;;;;;-2.04;100.00;101068.39;104987;1257;71623;-51
2023/12/09 06:48:30;;;;;;;32.00;16.60;;;;;;;-2.03;100.00;101069.46;104945;1256;60916;-51
2023/12/09 06:50:58;;;;;;;37.50;18.20;;;;;;;-2.04;100.00;101067.00;105019;1253;60436;-51
2023/12/09 06:53:25;;;;;;;34.20;17.20;;;;;;;-2.04;100.00;101068.58;104839;1254;73824;-52
2023/12/09 06:55:52;;;;;;;31.10;16.20;;;;;;;-2.05;100.00;101074.70;105110;1256;65989;-51
2023/12/09 06:58:20;;;;;;;35.20;16.70;;;;;;;-2.03;100.00;101078.43;104891;1254;72735;-52
2023/12/09 07:00:47;;;;;;;32.00;16.90;;;;;;;-1.99;100.00;101079.06;104852;1253;60450;-51
2023/12/09 07:03:15;;;;;;;31.60;17.40;;;;;;;-1.94;100.00;101076.20;109091;1253;59043;-52
2023/12/09 07:05:43;;;;;;;36.20;19.60;;;;;;;-1.88;100.00;101079.15;107519;1253;72723;-51
2023/12/09 07:08:10;;;;;;;34.90;18.20;;;;;;;-1.84;100.00;101081.15;104915;1253;65626;-52
2023/12/09 07:10:38;;;;;;;34.70;17.10;;;;;;;-1.81;100.00;101083.02;104875;1257;72665;-51
2023/12/09 07:13:05;;;;;;;34.50;19.50;;;;;;;-1.78;100.00;101081.83;104660;1255;60626;-51
2023/12/09 07:15:33;;;;;;;39.40;19.30;;;;;;;-1.76;100.00;101080.28;105111;1254;60450;-50
2023/12/09 07:18:01;;;;;;;34.80;18.90;;;;;;;-1.76;100.00;101079.59;105051;1258;72665;-50
2023/12/09 07:20:28;;;;;;;29.40;16.50;;;;;;;-1.75;100.00;101079.45;104887;1258;67341;-52
2023/12/09 07:22:56;;;;;;;30.30;15.60;;;;;;;-1.73;100.00;101079.84;104814;1254;71410;-48
2023/12/09 07:25:23;;;;;;;31.00;14.80;;;;;;;-1.72;100.00;101081.47;104861;1258;60536;-52
2023/12/09 07:27:51;;;;;;;22.10;10.70;;;;;;;-1.69;100.00;101084.31;104909;1254;60470;-51
2023/12/09 07:30:20;;;;;;;20.20;9.20;;;;;;;-1.69;100.00;101086.96;104811;1258;72712;-51
2023/12/09 07:32:48;;;;;;;20.00;9.30;;;;;;;-1.67;100.00;101096.85;109049;1254;64812;-52
2023/12/09 07:35:17;;;;;;;21.50;11.70;;;;;;;-1.63;100.00;101099.62;105102;1254;71264;-52
2023/12/09 07:37:44;;;;;;;21.30;10.60;;;;;;;-1.57;100.00;101097.80;109138;1253;59670;-53
2023/12/09 07:40:15;;;;;;;19.20;9.60;;;;;;;-1.52;100.00;101100.02;106948;1252;60547;-52
2023/12/09 07:42:43;;;;;;;16.10;8.40;;;;;;;-1.47;100.00;101103.82;105376;1254;73081;-52
2023/12/09 07:45:11;;;;;;;19.80;10.70;;;;;;;-1.41;100.00;101109.05;104795;1258;65473;-52
2023/12/09 07:47:40;;;;;;;20.20;10.70;;;;;;;-1.38;100.00;101114.06;104856;1257;71381;-51
2023/12/09 07:50:08;;;;;;;21.40;10.60;;;;;;;-1.36;100.00;101121.31;104829;1257;60351;-52
2023/12/09 07:52:36;;;;;;;20.40;10.50;;;;;;;-1.36;100.00;101125.73;104750;1255;60338;-52
2023/12/09 07:55:04;;;;;;;20.10;11.30;;;;;;;-1.41;100.00;101128.08;104701;1252;73899;-51
2023/12/09 07:57:32;;;;;;;25.50;11.60;;;;;;;-1.43;100.00;101136.30;104991;1254;67917;-52
2023/12/09 07:59:59;;;;;;;34.00;18.10;;;;;;;-1.44;100.00;101133.64;105166;1254;73156;-51
2023/12/09 08:02:27;;;;;;;26.20;14.80;;;;;;;-1.46;100.00;101131.83;106213;1256;61358;-51
2023/12/09 08:04:55;;;;;;;20.10;11.20;;;;;;;-1.49;100.00;101130.54;106529;1257;60047;-53
2023/12/09 08:07:23;;;;;;;22.50;11.50;;;;;;;-1.49;100.00;101126.13;106900;1254;72613;-50
2023/12/09 08:09:50;;;;;;;10.30;6.40;;;;;;;-1.50;100.00;101123.64;104877;1254;66065;-51
2023/12/09 08:12:18;;;;;;;9.80;6.10;;;;;;;-1.52;100.00;101123.41;104948;1257;72675;-51
2023/12/09 08:14:45;;;;;;;9.10;5.30;;;;;;;-1.53;100.00;101117.42;104941;1257;61352;-51
2023/12/09 08:17:13;;;;;;;10.00;6.30;;;;;;;-1.50;100.00;101118.36;104703;1257;60457;-52
2023/12/09 08:19:40;;;;;;;7.60;4.70;;;;;;;-1.45;100.00;101118.12;104859;1254;73806;-54
2023/12/09 08:22:08;;;;;;;8.80;5.30;;;;;;;-1.42;100.00;101113.63;104807;1254;65452;-54
2023/12/09 08:24:35;;;;;;;9.60;4.20;;;;;;;-1.38;100.00;101117.08;104894;1256;72765;-52
2023/12/09 08:27:03;;;;;;;10.60;5.40;;;;;;;-1.34;100.00;101115.35;105022;1254;62109;-51
2023/12/09 08:29:30;;;;;;;8.00;5.40;;;;;;;-1.34;100.00;101114.30;105485;1254;60542;-52
2023/12/09 08:31:58;;;;;;;9.50;6.00;;;;;;;-1.33;100.00;101112.92;105189;1254;73853;-51
2023/12/09 08:34:25;;;;;;;9.50;5.60;;;;;;;-1.35;100.00;101119.05;105204;1254;65795;-52
2023/12/09 08:36:53;;;;;;;7.20;4.60;;;;;;;-1.35;100.00;101115.33;104969;1255;70355;-52
2023/12/09 08:39:22;;;;;;;5.30;3.10;;;;;;;-1.35;100.00;101112.34;104980;1253;60953;-52
2023/12/09 08:41:50;;;;;;;5.80;3.00;;;;;;;-1.34;100.00;101107.98;105437;1253;60514;-51
2023/12/09 08:44:17;;;;;;;4.20;2.40;;;;;;;-1.29;100.00;101100.16;104888;1254;72538;-50
2023/12/09 08:46:45;;;;;;;4.00;2.90;;;;;;;-1.26;100.00;101100.94;105325;1256;66997;-53
2023/12/09 08:49:12;;;;;;;3.50;2.20;;;;;;;-1.22;100.00;101096.80;104868;1254;73148;-49
2023/12/09 08:51:47;;;;;;;2.20;1.70;;;;;;;-1.18;100.00;101094.05;105299;1253;60399;-51
2023/12/09 08:54:14;;;;;;;3.50;2.40;;;;;;;-1.12;100.00;101090.13;104903;1254;60435;-52
2023/12/09 08:56:42;;;;;;;6.20;3.30;;;;;;;-1.07;100.00;101089.33;105134;1254;73950;-52
2023/12/09 08:59:10;;;;;;;7.00;3.40;;;;;;;-1.03;100.00;101086.79;104725;1254;65869;-52
2023/12/09 09:01:38;;;;;;;5.80;2.90;;;;;;;-1.01;100.00;101087.16;105588;1254;71458;-52
2023/12/09 09:04:05;;;;;;;3.80;2.70;;;;;;;-1.00;100.00;101083.48;104987;1254;60424;-52
2023/12/09 09:06:33;;;;;;;3.50;2.70;;;;;;;-1.01;100.00;101078.19;105379;1257;60456;-52
2023/12/09 09:09:01;;;;;;;3.90;2.80;;;;;;;-1.01;100.00;101074.11;105534;1254;73894;-52
2023/12/09 09:11:29;;;;;;;4.70;2.50;;;;;;;-1.02;100.00;101074.64;104748;1254;67286;-53
2023/12/09 09:13:56;;;;;;;3.90;1.60;;;;;;;-1.02;100.00;101069.70;104815;1254;70899;-53
2023/12/09 09:16:23;;;;;;;2.50;1.80;;;;;;;-1.00;100.00;101073.80;104912;1254;60486;-52
2023/12/09 09:18:51;;;;;;;3.30;1.80;;;;;;;-0.98;100.00;101070.31;104768;1255;60636;-52
2023/12/09 09:21:18;;;;;;;1.80;1.00;;;;;;;-0.94;100.00;101067.39;105965;1253;71870;-53
2023/12/09 09:23:46;;;;;;;1.80;1.20;;;;;;;-0.91;100.00;101069.21;105781;1256;66255;-52
2023/12/09 09:26:13;;;;;;;2.80;1.20;;;;;;;-0.87;100.00;101071.23;104825;1253;71532;-52
2023/12/09 09:28:41;;;;;;;3.20;1.40;;;;;;;-0.86;100.00;101073.02;106777;1253;60602;-53
2023/12/09 09:31:11;;;;;;;2.10;1.60;;;;;;;-0.84;100.00;101070.91;104840;1254;60400;-51
2023/12/09 09:33:41;;;;;;;2.70;1.90;;;;;;;-0.85;100.00;101070.56;105819;1257;73764;-53
2023/12/09 09:36:09;;;;;;;3.10;1.80;;;;;;;-0.85;100.00;101077.79;107803;1254;66941;-50
2023/12/09 09:38:38;;;;;;;1.70;1.20;;;;;;;-0.86;100.00;101072.48;105371;1253;72701;-51
2023/12/09 09:41:07;;;;;;;3.40;2.30;;;;;;;-0.88;100.00;101072.09;105627;1257;60459;-51
2023/12/09 09:43:36;;;;;;;3.10;1.80;;;;;;;-0.90;100.00;101065.70;104821;1256;61919;-51
2023/12/09 09:46:07;;;;;;;3.20;2.00;;;;;;;-0.89;100.00;101062.38;109060;1253;72934;-52
2023/12/09 09:48:36;;;;;;;4.30;2.10;;;;;;;-0.90;100.00;101057.77;109233;1253;65639;-51
2023/12/09 09:51:05;;;;;;;2.10;1.90;;;;;;;-0.91;100.00;101056.35;106380;1254;73276;-52
2023/12/09 09:53:41;;;;;;;2.60;1.60;;;;;;;-0.89;100.00;101049.69;109013;1253;59713;-52
2023/12/09 09:56:09;;;;;;;2.50;1.70;;;;;;;-0.84;100.00;101051.55;109047;1252;60144;-52
2023/12/09 09:58:37;;;;;;;3.00;1.50;;;;;;;-0.80;100.00;101048.98;108989;1253;73026;-52
2023/12/09 10:01:04;;;;;;;1.40;1.20;;;;;;;-0.75;100.00;101049.94;108715;1254;67133;-51
2023/12/09 10:03:32;;;;;;;3.50;1.40;;;;;;;-0.70;100.00;101048.27;109174;1253;71425;-53
2023/12/09 10:05:59;;;;;;;2.10;1.90;;;;;;;-0.67;100.00;101046.38;109097;1252;58117;-54
2023/12/09 10:08:29;;;;;;;3.50;2.80;;;;;;;-0.63;100.00;101046.46;109056;1252;59164;-52
2023/12/09 10:10:56;;;;;;;2.50;2.20;;;;;;;-0.60;100.00;101052.34;109021;1253;71403;-53
2023/12/09 10:13:24;;;;;;;3.10;2.60;;;;;;;-0.61;100.00;101056.55;109063;1253;66759;-53
2023/12/09 10:15:51;;;;;;;3.00;2.70;;;;;;;-0.60;100.00;101059.91;108988;1256;74881;-53
2023/12/09 10:18:20;;;;;;;4.20;3.20;;;;;;;-0.60;100.00;101051.27;109038;1252;59249;-54
2023/12/09 10:20:48;;;;;;;4.90;3.90;;;;;;;-0.61;100.00;101047.73;109081;1252;58886;-54
2023/12/09 10:23:19;;;;;;;3.70;3.10;;;;;;;-0.65;100.00;101044.13;107945;1253;72631;-52
2023/12/09 10:25:47;;;;;;;4.10;3.50;;;;;;;-0.68;100.00;101037.73;104812;1257;65761;-52
2023/12/09 10:28:15;;;;;;;4.50;3.10;;;;;;;-0.70;100.00;101029.59;109084;1253;72785;-53
2023/12/09 10:30:42;;;;;;;4.80;3.50;;;;;;;-0.71;100.00;101020.05;107475;1256;61937;-53
2023/12/09 10:33:11;;;;;;;2.90;2.50;;;;;;;-0.72;100.00;101018.79;105044;1253;60315;-52
2023/12/09 10:35:39;;;;;;;3.30;2.30;;;;;;;-0.73;100.00;101016.66;107898;1253;72082;-51
2023/12/09 10:38:06;;;;;;;3.50;2.30;;;;;;;-0.73;100.00;101012.59;104795;1254;66043;-51
2023/12/09 10:40:34;;;;;;;4.10;2.80;;;;;;;-0.72;100.00;101013.16;104810;1252;72009;-52
2023/12/09 10:43:05;;;;;;;2.80;2.40;;;;;;;-0.69;100.00;101011.45;105122;1253;60562;-53
2023/12/09 10:45:32;;;;;;;3.50;3.00;;;;;;;-0.65;100.00;101010.27;104792;1257;61277;-53
2023/12/09 10:48:00;;;;;;;5.30;2.70;;;;;;;-0.63;100.00;101011.02;104896;1256;73966;-53
2023/12/09 10:50:28;;;;;;;4.90;3.30;;;;;;;-0.61;100.00;101006.82;107261;1253;65955;-53
2023/12/09 10:52:56;;;;;;;4.00;3.30;;;;;;;-0.60;100.00;101004.73;104978;1257;71660;-53
2023/12/09 10:55:24;;;;;;;5.90;2.30;;;;;;;-0.60;100.00;101002.63;105066;1254;60546;-52
2023/12/09 10:57:51;;;;;;;4.40;3.00;;;;;;;-0.58;100.00;101004.91;104766;1257;60543;-51
2023/12/09 11:00:19;;;;;;;4.70;3.50;;;;;;;-0.57;100.00;101006.19;104877;1257;74340;-57